Time;durP1;ratioP1;P1;durP2;ratioP2;P2;SDS_P1;SDS_P2;PMS_P1;PMS_P2;Temp;Humidity;BMP_temperature;BMP_pressure;BME280_temperature;BME280_humidity;BME280_pressure;Samples;Min_cycle;Max_cycle;Signal;HPM_P1;HPM_P2
2022/12/25 00:02:11;;;;;;;0.63;0.35;;;;;;;12.18;36.78;100283.72;6015302;23;20619;-89
2022/12/25 00:04:37;;;;;;;0.30;0.30;;;;;;;12.34;37.21;100312.00;6014293;23;20011;-90
2022/12/25 00:07:03;;;;;;;0.47;0.40;;;;;;;12.37;36.91;100318.81;6015727;23;20022;-89
2022/12/25 00:09:29;;;;;;;0.47;0.40;;;;;;;12.30;36.96;100308.09;6015342;23;20011;-89
2022/12/25 00:11:54;;;;;;;0.30;0.30;;;;;;;12.34;37.00;100313.88;6015755;23;20014;-90
2022/12/25 00:14:20;;;;;;;1.67;0.55;;;;;;;12.42;36.97;100336.97;6015278;23;20438;-89
2022/12/25 00:16:46;;;;;;;0.50;0.50;;;;;;;12.32;36.90;100329.31;6015549;23;20010;-90
2022/12/25 00:19:11;;;;;;;1.73;0.40;;;;;;;12.38;36.81;100345.44;6015567;23;20011;-90
2022/12/25 00:21:37;;;;;;;0.77;0.40;;;;;;;12.19;36.79;100308.66;6015402;23;20066;-90
2022/12/25 00:24:06;;;;;;;0.65;0.50;;;;;;;12.34;36.75;100330.75;6016306;23;20074;-89
2022/12/25 00:26:31;;;;;;;0.85;0.52;;;;;;;12.28;36.84;100328.06;6015687;23;20099;-89
2022/12/25 00:28:57;;;;;;;0.68;0.30;;;;;;;12.41;36.72;100341.50;6015379;23;20014;-90
2022/12/25 00:31:23;;;;;;;0.73;0.40;;;;;;;12.54;36.90;100367.53;6015292;23;20007;-89
2022/12/25 00:33:49;;;;;;;0.30;0.30;;;;;;;12.31;36.95;100335.69;6015976;23;20002;-90
2022/12/25 00:36:16;;;;;;;0.60;0.40;;;;;;;12.43;36.73;100360.06;6016277;23;20115;-90
2022/12/25 00:38:42;;;;;;;0.88;0.40;;;;;;;12.24;36.89;100322.25;6015787;23;20010;-90
2022/12/25 00:41:13;;;;;;;0.40;0.40;;;;;;;12.41;37.05;100357.59;6014119;23;20032;-89
2022/12/25 00:43:40;;;;;;;0.50;0.30;;;;;;;12.46;36.86;100371.22;6014570;23;20717;-90
2022/12/25 00:46:06;;;;;;;0.30;0.30;;;;;;;12.32;36.76;100338.19;6016232;23;20039;-90
2022/12/25 00:48:32;;;;;;;1.20;0.60;;;;;;;12.45;36.62;100371.41;6015196;23;20516;-89
2022/12/25 00:50:59;;;;;;;0.50;0.43;;;;;;;12.50;36.71;100374.31;6015081;23;20019;-89
2022/12/25 00:53:25;;;;;;;0.98;0.40;;;;;;;12.42;36.79;100361.94;6014960;23;20214;-90
2022/12/25 00:55:55;;;;;;;0.43;0.40;;;;;;;12.63;36.79;100395.00;6015091;23;20399;-89
2022/12/25 00:58:24;;;;;;;0.50;0.35;;;;;;;12.42;36.62;100364.63;6015670;23;20085;-89
2022/12/25 01:00:49;;;;;;;0.40;0.30;;;;;;;12.39;36.68;100365.00;6015007;23;20074;-89
2022/12/25 01:03:15;;;;;;;0.45;0.38;;;;;;;12.38;36.70;100357.97;6014563;23;20022;-89
2022/12/25 01:05:41;;;;;;;0.95;0.50;;;;;;;12.48;36.80;100374.53;6013910;23;20109;-90
2022/12/25 01:08:07;;;;;;;0.55;0.40;;;;;;;12.58;36.36;100391.06;6015377;23;20078;-89
2022/12/25 01:10:35;;;;;;;0.40;0.40;;;;;;;12.68;36.58;100405.97;6014609;23;20021;-88
2022/12/25 01:13:01;;;;;;;0.90;0.50;;;;;;;12.46;36.62;100378.44;6014739;23;20022;-90
2022/12/25 01:15:30;;;;;;;0.63;0.50;;;;;;;12.45;36.65;100376.78;6012365;23;20019;-89
2022/12/25 01:17:55;;;;;;;0.50;0.50;;;;;;;12.29;36.60;100348.47;6013198;23;20038;-90
2022/12/25 01:20:21;;;;;;;0.60;0.40;;;;;;;12.48;36.47;100385.25;6013429;23;20351;-89
2022/12/25 01:22:47;;;;;;;1.33;0.50;;;;;;;12.39;36.34;100376.53;6013842;23;20491;-90
2022/12/25 01:25:13;;;;;;;0.40;0.40;;;;;;;12.52;36.33;100402.59;6014287;23;20359;-89
2022/12/25 01:27:40;;;;;;;0.88;0.50;;;;;;;12.69;36.35;100427.19;6014139;23;20014;-90
2022/12/25 01:30:09;;;;;;;0.57;0.40;;;;;;;12.44;36.24;100394.72;6014536;23;20100;-90
2022/12/25 01:32:35;;;;;;;0.82;0.40;;;;;;;12.31;36.57;100378.56;6038270;23;20007;-89
2022/12/25 01:35:00;;;;;;;0.40;0.30;;;;;;;12.48;36.29;100398.66;6014853;23;20007;-89
2022/12/25 01:37:26;;;;;;;0.80;0.38;;;;;;;12.46;36.41;100397.19;6014041;23;20094;-90
2022/12/25 01:39:52;;;;;;;0.40;0.40;;;;;;;12.40;36.50;100402.34;6014355;23;20011;-90
2022/12/25 01:42:19;;;;;;;0.45;0.45;;;;;;;12.68;36.36;100440.81;6014870;23;20019;-89
2022/12/25 01:44:45;;;;;;;0.28;0.28;;;;;;;12.73;36.26;100443.72;6038482;23;20058;-90
2022/12/25 01:47:11;;;;;;;0.40;0.40;;;;;;;12.64;36.50;100424.31;6063389;23;20007;-89
2022/12/25 01:49:44;;;;;;;0.55;0.40;;;;;;;12.75;36.06;100449.72;6013822;23;20329;-90
2022/12/25 01:52:18;;;;;;;1.10;0.60;;;;;;;12.47;36.22;100405.06;6037767;23;20017;-90
2022/12/25 01:54:54;;;;;;;1.30;0.50;;;;;;;12.62;36.39;100438.91;6016039;23;20017;-89
2022/12/25 01:57:25;;;;;;;0.82;0.40;;;;;;;12.48;36.37;100406.69;6036864;23;20558;-90
2022/12/25 01:59:50;;;;;;;0.40;0.40;;;;;;;12.59;36.25;100434.78;6014448;23;20017;-90
2022/12/25 02:02:16;;;;;;;0.57;0.45;;;;;;;12.53;36.24;100416.81;6013832;23;20372;-90
2022/12/25 02:04:47;;;;;;;1.48;0.43;;;;;;;12.61;36.06;100432.75;6013878;23;20078;-89
2022/12/25 02:07:20;;;;;;;0.40;0.35;;;;;;;12.49;36.14;100415.56;6015033;23;20011;-89
2022/12/25 02:09:46;;;;;;;1.40;0.40;;;;;;;12.47;36.01;100418.44;6015402;23;20388;-90
2022/12/25 02:12:24;;;;;;;0.32;0.32;;;;;;;12.52;36.14;100440.13;6014051;23;20010;-90
2022/12/25 02:14:51;;;;;;;0.57;0.47;;;;;;;12.68;35.80;100451.53;6015287;23;20388;-89
2022/12/25 02:17:37;;;;;;;1.48;0.60;;;;;;;12.78;36.19;100466.22;6014000;23;20413;-90
2022/12/25 02:20:40;;;;;;;0.80;0.70;;;;;;;12.79;35.89;100461.69;6037413;23;20018;-90
2022/12/25 02:23:09;;;;;;;1.20;0.50;;;;;;;12.78;35.82;100452.00;6060991;23;20011;-90
2022/12/25 02:25:52;;;;;;;0.30;0.30;;;;;;;12.80;36.00;100457.13;6060666;23;20010;-89
2022/12/25 02:28:24;;;;;;;1.02;0.40;;;;;;;12.58;35.72;100433.94;6037443;23;20175;-89
2022/12/25 02:30:53;;;;;;;1.10;0.45;;;;;;;12.61;36.08;100443.47;6037096;23;20341;-89
2022/12/25 02:36:13;;;;;;;0.82;0.45;;;;;;;12.65;35.67;100435.84;6043061;23;20043;-90
2022/12/25 02:41:45;;;;;;;0.30;0.30;;;;;;;12.75;35.71;100463.94;5967488;23;20038;-90
2022/12/25 03:06:43;;;;;;;1.38;0.60;;;;;;;12.68;35.52;100460.41;6039855;23;20017;-89
2022/12/25 03:12:12;;;;;;;0.43;0.30;;;;;;;12.61;35.58;100450.66;6039093;23;20511;-90
2022/12/25 03:17:21;;;;;;;0.43;0.40;;;;;;;12.83;35.75;100488.91;6038938;23;20070;-90
2022/12/25 03:28:00;;;;;;;1.30;0.40;;;;;;;12.64;35.59;100458.31;6059639;23;20039;-90
2022/12/25 03:33:31;;;;;;;0.73;0.40;;;;;;;12.60;35.61;100452.53;6040589;23;20082;-89
2022/12/25 03:36:21;;;;;;;0.88;0.43;;;;;;;12.61;35.23;100443.47;6014265;23;20026;-89
2022/12/25 03:39:38;;;;;;;0.32;0.30;;;;;;;12.61;35.61;100453.34;6012103;23;20090;-90
2022/12/25 04:37:37;;;;;;;0.32;0.25;;;;;;;12.72;35.06;100501.06;6060147;23;20164;-90
2022/12/25 04:40:03;;;;;;;0.88;0.40;;;;;;;12.66;35.12;100485.75;6013115;23;20685;-90
2022/12/25 04:42:29;;;;;;;0.70;0.40;;;;;;;12.73;34.87;100505.41;6013074;23;20059;-89
2022/12/25 04:44:54;;;;;;;0.20;0.20;;;;;;;12.55;35.00;100485.28;6015094;23;19995;-90
2022/12/25 04:47:20;;;;;;;0.35;0.30;;;;;;;12.73;35.02;100500.03;6012203;23;20013;-89
2022/12/25 04:49:46;;;;;;;0.40;0.40;;;;;;;12.74;35.13;100501.66;6012994;23;20061;-90
2022/12/25 04:52:11;;;;;;;0.50;0.40;;;;;;;12.64;35.09;100479.75;6012470;23;20332;-90
2022/12/25 04:54:37;;;;;;;0.68;0.47;;;;;;;12.76;35.08;100502.28;6013163;23;20018;-90
2022/12/25 04:57:03;;;;;;;0.73;0.40;;;;;;;12.67;34.92;100490.91;6012544;23;20015;-89
2022/12/25 04:59:32;;;;;;;1.42;0.65;;;;;;;12.69;35.00;100493.41;6011829;23;20015;-90
2022/12/25 05:01:57;;;;;;;0.82;0.40;;;;;;;12.84;35.03;100515.53;6012110;23;20109;-90
2022/12/25 05:04:23;;;;;;;0.30;0.30;;;;;;;12.77;34.73;100509.31;6012629;23;20321;-90
2022/12/25 05:06:49;;;;;;;0.43;0.40;;;;;;;12.93;34.97;100535.78;6012838;23;20014;-89
2022/12/25 05:09:15;;;;;;;0.40;0.40;;;;;;;12.80;34.52;100516.97;6012644;23;20058;-90
2022/12/25 05:11:40;;;;;;;0.68;0.50;;;;;;;12.81;34.73;100509.75;6011741;23;20018;-90
2022/12/25 05:14:06;;;;;;;1.13;0.50;;;;;;;12.70;34.66;100490.53;6012321;23;20003;-90
2022/12/25 05:16:35;;;;;;;0.50;0.30;;;;;;;12.81;34.92;100513.25;6012631;23;20073;-89
2022/12/25 05:19:00;;;;;;;0.60;0.40;;;;;;;12.67;34.90;100490.09;6012665;23;20006;-90
2022/12/25 05:21:26;;;;;;;0.43;0.30;;;;;;;12.61;34.93;100486.34;6011737;23;20483;-89
2022/12/25 05:23:52;;;;;;;0.88;0.50;;;;;;;12.66;34.76;100499.16;6012388;23;20280;-90
2022/12/25 05:26:22;;;;;;;0.40;0.40;;;;;;;12.78;34.67;100513.69;6012395;23;20017;-90
2022/12/25 05:28:48;;;;;;;0.43;0.30;;;;;;;12.88;34.58;100524.88;6011964;23;20459;-90
2022/12/25 05:31:14;;;;;;;0.82;0.50;;;;;;;12.75;34.69;100509.53;6012003;23;20364;-90
2022/12/25 05:33:39;;;;;;;0.40;0.40;;;;;;;12.66;34.59;100494.63;6011914;23;20015;-90
2022/12/25 05:36:06;;;;;;;0.38;0.38;;;;;;;12.88;34.67;100529.38;6012578;23;20397;-90
2022/12/25 05:38:32;;;;;;;0.47;0.40;;;;;;;12.77;34.44;100522.72;6012712;23;20042;-90
2022/12/25 05:40:58;;;;;;;1.27;0.30;;;;;;;12.80;34.77;100524.19;6035857;23;20015;-90
2022/12/25 05:43:23;;;;;;;1.30;0.45;;;;;;;12.71;34.42;100518.16;6011266;23;20102;-90
2022/12/25 05:45:49;;;;;;;0.43;0.40;;;;;;;12.77;34.61;100522.72;6012179;23;20023;-90
2022/12/25 05:48:16;;;;;;;0.35;0.35;;;;;;;12.81;34.32;100521.28;6035888;23;20007;-90
2022/12/25 05:50:42;;;;;;;0.40;0.40;;;;;;;12.91;34.36;100535.16;6036133;23;20035;-90
2022/12/25 05:53:08;;;;;;;0.82;0.40;;;;;;;12.97;34.57;100549.66;6059499;23;20011;-90
2022/12/25 05:55:34;;;;;;;0.95;0.47;;;;;;;12.90;34.38;100549.63;6012834;23;20436;-91
2022/12/25 05:58:07;;;;;;;1.05;0.50;;;;;;;12.84;34.49;100554.97;6012918;23;20459;-90
2022/12/25 06:00:33;;;;;;;0.70;0.40;;;;;;;12.92;34.22;100569.03;6036626;23;20449;-90
2022/12/25 06:02:59;;;;;;;1.05;0.45;;;;;;;12.77;34.53;100550.38;6008990;23;20026;-90
2022/12/25 06:05:25;;;;;;;0.40;0.40;;;;;;;12.80;34.49;100548.31;6012241;23;20389;-90
2022/12/25 06:07:51;;;;;;;0.82;0.40;;;;;;;12.77;34.29;100549.56;6012891;23;20109;-90
2022/12/25 06:10:16;;;;;;;0.68;0.45;;;;;;;12.71;34.53;100553.88;6012870;23;20011;-90
2022/12/25 06:12:42;;;;;;;0.80;0.40;;;;;;;12.88;34.55;100583.88;6012328;23;20007;-90
2022/12/25 06:15:08;;;;;;;0.43;0.40;;;;;;;12.74;34.05;100561.50;6013119;23;20062;-91
2022/12/25 06:17:34;;;;;;;0.30;0.30;;;;;;;12.66;34.16;100531.31;6012711;23;20086;-90
2022/12/25 06:20:00;;;;;;;0.40;0.40;;;;;;;12.86;34.22;100564.44;6013557;23;20014;-90
2022/12/25 06:22:29;;;;;;;0.88;0.32;;;;;;;12.84;34.09;100560.31;6012063;23;20015;-89
2022/12/25 06:24:55;;;;;;;0.88;0.40;;;;;;;12.95;34.05;100579.38;6012995;23;20011;-89
2022/12/25 06:27:23;;;;;;;0.75;0.57;;;;;;;12.92;34.03;100573.56;6012218;23;20035;-90
2022/12/25 06:29:49;;;;;;;0.35;0.35;;;;;;;12.81;34.25;100572.25;6013498;23;20361;-90
2022/12/25 06:32:14;;;;;;;0.43;0.43;;;;;;;12.92;34.02;100598.53;6012625;23;20003;-90
2022/12/25 06:34:40;;;;;;;0.85;0.40;;;;;;;12.92;34.40;100603.91;6013247;23;20011;-90
2022/12/25 06:37:06;;;;;;;0.52;0.40;;;;;;;12.98;34.15;100625.59;6012865;23;20005;-90
2022/12/25 06:39:31;;;;;;;0.30;0.30;;;;;;;12.82;33.93;100591.88;6011895;23;20022;-89
2022/12/25 06:41:57;;;;;;;1.05;0.40;;;;;;;12.80;33.99;100593.91;6035789;23;20015;-90
2022/12/25 06:44:23;;;;;;;0.43;0.30;;;;;;;12.82;34.08;100608.78;6036061;23;20011;-90
2022/12/25 06:46:49;;;;;;;0.40;0.40;;;;;;;12.82;33.99;100608.78;6011685;23;20071;-90
2022/12/25 06:49:14;;;;;;;0.30;0.30;;;;;;;12.89;34.18;100617.69;6036479;23;20013;-90
2022/12/25 06:51:40;;;;;;;0.32;0.30;;;;;;;12.88;33.90;100631.31;6012365;23;20046;-90
2022/12/25 06:54:06;;;;;;;0.85;0.55;;;;;;;12.93;34.34;100639.59;6036000;23;20085;-89
2022/12/25 06:56:32;;;;;;;0.65;0.50;;;;;;;12.96;33.91;100641.88;6035844;23;20433;-90
2022/12/25 06:58:59;;;;;;;0.30;0.30;;;;;;;12.87;34.01;100635.84;6036190;23;20290;-90
2022/12/25 07:01:29;;;;;;;0.32;0.30;;;;;;;12.71;33.61;100620.91;6036316;23;20006;-90
2022/12/25 07:04:00;;;;;;;0.40;0.40;;;;;;;12.86;33.89;100661.00;6036012;23;20029;-90
2022/12/25 07:06:26;;;;;;;1.25;0.40;;;;;;;12.93;33.91;100669.94;6060842;23;20447;-91
2022/12/25 07:08:55;;;;;;;0.40;0.40;;;;;;;12.96;33.92;100676.75;6012902;23;20459;-90
2022/12/25 07:11:21;;;;;;;0.30;0.30;;;;;;;12.89;33.83;100663.31;6013037;23;20471;-90
2022/12/25 07:13:47;;;;;;;0.20;0.20;;;;;;;12.86;33.66;100662.88;6011486;23;20010;-90
2022/12/25 07:16:13;;;;;;;0.43;0.43;;;;;;;12.81;33.79;100652.72;6013228;23;20042;-90
2022/12/25 07:18:38;;;;;;;0.50;0.30;;;;;;;12.73;33.87;100644.84;6013795;23;20021;-90
2022/12/25 07:21:12;;;;;;;1.05;0.40;;;;;;;12.83;33.85;100657.88;6014468;23;20433;-89
2022/12/25 07:23:38;;;;;;;0.40;0.32;;;;;;;12.88;33.88;100677.75;6038354;23;20327;-90
2022/12/25 07:26:04;;;;;;;0.43;0.30;;;;;;;12.89;33.76;100678.59;6014474;23;20062;-90
2022/12/25 07:28:29;;;;;;;0.30;0.30;;;;;;;12.84;33.84;100672.97;6013890;23;20011;-90
2022/12/25 07:31:03;;;;;;;0.40;0.40;;;;;;;12.94;33.71;100682.31;6015381;23;20082;-90
2022/12/25 07:33:41;;;;;;;0.30;0.30;;;;;;;12.89;33.81;100674.03;6015431;23;20081;-90
2022/12/25 07:36:07;;;;;;;0.45;0.40;;;;;;;12.70;33.29;100647.91;6038475;23;20018;-90
2022/12/25 07:38:33;;;;;;;0.60;0.40;;;;;;;12.66;33.64;100638.59;6014313;23;20015;-90
2022/12/25 07:40:59;;;;;;;1.10;0.52;;;;;;;12.95;33.45;100684.00;6013990;23;20445;-90
2022/12/25 07:43:24;;;;;;;0.50;0.40;;;;;;;12.73;33.59;100660.94;6015082;23;20348;-90
2022/12/25 07:45:57;;;;;;;0.63;0.30;;;;;;;12.77;33.81;100672.91;6015278;23;20003;-90
2022/12/25 07:48:24;;;;;;;0.60;0.43;;;;;;;12.93;33.66;100703.97;6015703;23;20568;-90
2022/12/25 07:51:00;;;;;;;0.30;0.30;;;;;;;12.77;33.46;100687.16;6013575;23;20061;-90
2022/12/25 07:53:26;;;;;;;0.60;0.40;;;;;;;12.92;33.61;100707.69;6012794;23;20089;-90
2022/12/25 07:56:01;;;;;;;0.28;0.28;;;;;;;12.91;33.69;100708.72;6014871;23;20381;-90
2022/12/25 07:58:28;;;;;;;0.65;0.50;;;;;;;12.82;33.38;100691.94;6038878;23;20011;-90
2022/12/25 08:00:53;;;;;;;0.40;0.40;;;;;;;12.64;33.46;100667.44;6014883;23;20086;-90
2022/12/25 08:03:19;;;;;;;0.30;0.30;;;;;;;12.73;33.34;100690.44;6013223;23;20137;-90
2022/12/25 08:05:45;;;;;;;0.35;0.30;;;;;;;12.70;33.43;100688.13;6013975;23;20010;-90
2022/12/25 08:08:11;;;;;;;1.17;0.43;;;;;;;12.72;33.37;100694.13;6014696;23;20160;-90
2022/12/25 08:10:37;;;;;;;0.80;0.40;;;;;;;12.71;33.40;100701.34;6014632;23;20132;-90
2022/12/25 08:13:05;;;;;;;0.55;0.38;;;;;;;12.75;33.32;100709.84;6014918;23;20010;-90
2022/12/25 08:15:31;;;;;;;0.40;0.35;;;;;;;12.62;33.50;100688.28;6014694;23;20010;-90
2022/12/25 08:17:57;;;;;;;0.68;0.40;;;;;;;12.50;33.39;100674.56;6014430;23;20007;-90
2022/12/25 08:20:22;;;;;;;0.40;0.38;;;;;;;12.64;33.30;100697.78;6014406;23;20014;-90
2022/12/25 08:22:51;;;;;;;0.43;0.43;;;;;;;12.66;33.40;100697.56;6014913;23;20659;-90
2022/12/25 08:25:18;;;;;;;0.60;0.40;;;;;;;12.88;33.27;100731.41;6013880;23;20014;-90
2022/12/25 08:27:44;;;;;;;0.28;0.28;;;;;;;12.71;33.60;100712.09;6013284;23;20459;-90
2022/12/25 08:30:10;;;;;;;0.40;0.30;;;;;;;12.67;33.60;100710.78;6013673;23;20313;-90
2022/12/25 08:32:36;;;;;;;0.85;0.40;;;;;;;12.60;33.11;100704.53;6013881;23;20006;-90
2022/12/25 08:35:02;;;;;;;0.50;0.30;;;;;;;12.66;33.37;100708.31;6015107;23;20011;-90
2022/12/25 08:37:31;;;;;;;0.25;0.25;;;;;;;12.69;33.12;100715.97;6014135;23;20504;-90
2022/12/25 08:39:56;;;;;;;0.65;0.40;;;;;;;12.84;33.38;100748.91;6013734;23;20014;-90
2022/12/25 08:42:22;;;;;;;0.52;0.32;;;;;;;12.59;33.23;100714.44;6013835;23;20011;-90
2022/12/25 08:44:48;;;;;;;0.30;0.30;;;;;;;12.81;33.25;100732.38;6014103;23;20011;-91
2022/12/25 08:47:14;;;;;;;0.50;0.43;;;;;;;12.75;33.18;100736.66;6013770;23;20007;-90
2022/12/25 08:49:39;;;;;;;0.45;0.40;;;;;;;12.75;33.21;100737.47;6013802;23;20429;-90
2022/12/25 08:52:06;;;;;;;0.63;0.30;;;;;;;12.67;33.00;100726.06;6014058;23;20432;-90
2022/12/25 08:54:35;;;;;;;0.30;0.30;;;;;;;12.64;32.92;100715.72;6014440;23;20025;-90
2022/12/25 08:57:01;;;;;;;0.55;0.40;;;;;;;12.68;32.91;100722.38;6015037;23;20011;-90
2022/12/25 08:59:27;;;;;;;0.60;0.40;;;;;;;12.66;33.30;100724.38;6013184;23;20078;-90
2022/12/25 09:01:53;;;;;;;0.50;0.50;;;;;;;12.63;33.02;100719.44;6009832;23;20045;-90
2022/12/25 09:04:19;;;;;;;0.52;0.40;;;;;;;12.78;33.14;100744.31;5962317;23;20048;-90
2022/12/25 09:06:44;;;;;;;0.82;0.47;;;;;;;12.75;33.23;100732.13;5985552;23;20075;-90
2022/12/25 09:09:10;;;;;;;0.55;0.30;;;;;;;12.66;33.09;100732.44;5961998;23;20105;-90
2022/12/25 09:11:36;;;;;;;0.55;0.38;;;;;;;12.75;32.98;100744.69;5962188;23;20019;-90
2022/12/25 09:14:02;;;;;;;0.32;0.32;;;;;;;12.59;33.07;100725.19;5961532;23;20021;-90
2022/12/25 09:16:27;;;;;;;0.43;0.35;;;;;;;12.68;33.14;100733.09;5961545;23;20018;-90
2022/12/25 09:18:55;;;;;;;0.40;0.30;;;;;;;12.62;32.94;100734.66;5985525;23;20018;-90
2022/12/25 09:21:20;;;;;;;0.50;0.50;;;;;;;12.65;33.17;100739.66;5961355;23;20150;-90
2022/12/25 09:23:46;;;;;;;0.40;0.40;;;;;;;12.43;32.72;100701.28;5961717;23;20007;-90
2022/12/25 09:26:14;;;;;;;1.10;0.50;;;;;;;12.84;33.05;100767.66;5962470;23;20050;-90
2022/12/25 09:28:40;;;;;;;0.45;0.45;;;;;;;12.58;33.01;100742.28;5961695;23;20079;-89
2022/12/25 09:31:06;;;;;;;0.63;0.40;;;;;;;12.65;32.80;100744.19;5962515;23;20470;-90
2022/12/25 09:33:31;;;;;;;0.50;0.40;;;;;;;12.69;33.05;100767.72;5961109;23;20007;-90
2022/12/25 09:36:05;;;;;;;0.63;0.40;;;;;;;12.63;33.06;100756.97;5961850;23;20043;-90
2022/12/25 09:38:31;;;;;;;1.23;0.60;;;;;;;12.72;33.08;100769.22;5962130;23;20011;-90
2022/12/25 09:41:34;;;;;;;1.08;0.50;;;;;;;12.83;33.07;100784.81;5961986;23;20010;-90
2022/12/25 09:44:06;;;;;;;0.57;0.50;;;;;;;12.72;33.12;100772.72;6033933;23;20505;-90
2022/12/25 09:46:42;;;;;;;0.80;0.43;;;;;;;12.78;32.99;100781.88;5985341;23;20437;-90
2022/12/25 09:49:26;;;;;;;1.02;0.50;;;;;;;12.82;32.94;100785.81;5986574;23;20007;-90
2022/12/25 09:51:56;;;;;;;1.15;0.60;;;;;;;12.80;32.90;100785.19;6033660;23;19999;-90
2022/12/25 09:54:28;;;;;;;0.82;0.70;;;;;;;12.77;32.88;100785.56;5985190;23;20361;-90
2022/12/25 09:56:54;;;;;;;1.35;0.70;;;;;;;12.71;32.78;100779.13;6009897;23;20011;-90
2022/12/25 09:59:24;;;;;;;0.77;0.60;;;;;;;12.71;32.88;100772.91;5961102;23;20521;-89
2022/12/25 10:02:04;;;;;;;0.80;0.57;;;;;;;12.81;32.76;100784.16;5985068;23;20075;-90
2022/12/25 10:04:43;;;;;;;0.68;0.60;;;;;;;12.81;32.82;100784.16;5985163;23;20023;-90
2022/12/25 10:07:38;;;;;;;0.73;0.50;;;;;;;12.79;32.99;100778.16;6008385;23;20019;-90
2022/12/25 10:10:23;;;;;;;0.60;0.60;;;;;;;12.72;32.95;100772.72;5984523;23;20070;-90
2022/12/25 10:13:22;;;;;;;0.80;0.70;;;;;;;12.80;32.60;100789.69;5984710;23;20914;-90
2022/12/25 10:16:12;;;;;;;0.60;0.60;;;;;;;12.75;32.60;100790.28;6008434;23;20015;-90
2022/12/25 10:18:40;;;;;;;1.77;0.60;;;;;;;12.77;32.66;100794.44;5986065;23;20007;-90
2022/12/25 10:21:09;;;;;;;1.00;0.52;;;;;;;12.73;32.90;100785.13;6007867;23;20349;-89
2022/12/25 10:23:37;;;;;;;1.73;0.60;;;;;;;12.76;32.70;100795.47;5984553;23;20042;-90
2022/12/25 10:26:05;;;;;;;0.90;0.52;;;;;;;12.73;32.79;100787.81;5961782;23;20007;-90
2022/12/25 10:28:41;;;;;;;0.77;0.60;;;;;;;12.76;32.58;100794.63;5985062;23;20330;-89
2022/12/25 10:31:20;;;;;;;0.90;0.50;;;;;;;12.70;32.64;100790.03;5985916;23;20003;-90
2022/12/25 10:33:47;;;;;;;0.70;0.50;;;;;;;12.41;32.79;100751.59;5961518;23;20456;-90
2022/12/25 10:36:21;;;;;;;1.52;0.70;;;;;;;12.70;32.63;100798.09;5984186;23;20015;-90
2022/12/25 10:38:47;;;;;;;0.80;0.70;;;;;;;12.70;32.83;100800.78;5963029;23;20090;-90
2022/12/25 10:41:40;;;;;;;1.17;0.50;;;;;;;12.77;32.61;100826.63;5961147;23;20046;-90
2022/12/25 10:44:20;;;;;;;0.50;0.43;;;;;;;12.77;32.60;100828.47;6007755;23;20015;-90
2022/12/25 10:46:58;;;;;;;0.82;0.57;;;;;;;12.71;32.89;100808.63;5962758;23;20011;-90
2022/12/25 10:49:29;;;;;;;0.70;0.60;;;;;;;12.71;32.86;100823.88;5962638;23;20034;-89
2022/12/25 10:51:55;;;;;;;0.98;0.50;;;;;;;12.65;32.69;100819.28;5963786;23;20460;-90
2022/12/25 10:54:24;;;;;;;0.60;0.60;;;;;;;12.75;32.83;100844.75;5963128;23;19999;-90
2022/12/25 10:57:09;;;;;;;0.75;0.50;;;;;;;12.77;32.63;100849.94;6009760;23;20358;-89
2022/12/25 10:59:43;;;;;;;0.85;0.50;;;;;;;12.70;32.83;100838.31;5987134;23;20034;-89
2022/12/25 11:02:46;;;;;;;1.33;0.70;;;;;;;12.77;32.38;100845.38;5994628;23;20015;-90
2022/12/25 11:05:53;;;;;;;1.08;0.68;;;;;;;12.68;32.50;100832.31;6061274;23;20066;-90
2022/12/25 11:08:20;;;;;;;0.95;0.70;;;;;;;12.65;32.71;100827.31;6018841;23;20006;-89
2022/12/25 11:11:23;;;;;;;0.57;0.57;;;;;;;12.75;32.67;100835.88;6014870;23;20010;-89
2022/12/25 11:13:54;;;;;;;0.63;0.55;;;;;;;12.56;32.58;100805.16;6036488;23;20270;-90
2022/12/25 11:16:39;;;;;;;0.60;0.45;;;;;;;12.50;32.61;100795.19;6014832;23;20017;-89
2022/12/25 11:19:26;;;;;;;1.60;0.70;;;;;;;12.76;32.60;100851.78;6015143;23;20065;-90
2022/12/25 11:22:35;;;;;;;0.52;0.52;;;;;;;12.13;32.48;100760.38;6037917;23;20230;-89
2022/12/25 11:25:14;;;;;;;0.65;0.50;;;;;;;12.46;32.89;100820.72;6039080;23;20392;-90
2022/12/25 11:27:41;;;;;;;0.80;0.50;;;;;;;12.56;32.77;100834.66;6014097;23;20014;-89
2022/12/25 11:30:09;;;;;;;0.70;0.47;;;;;;;12.62;32.69;100847.28;6014971;23;20013;-89
2022/12/25 11:32:44;;;;;;;0.98;0.50;;;;;;;12.68;32.51;100861.81;6014874;23;20352;-89
2022/12/25 11:35:11;;;;;;;0.60;0.52;;;;;;;12.54;32.94;100834.03;6014520;23;20341;-89
2022/12/25 11:37:45;;;;;;;0.98;0.60;;;;;;;12.71;32.49;100864.94;6014152;23;20017;-89
2022/12/25 11:40:21;;;;;;;0.70;0.50;;;;;;;12.47;32.39;100817.00;6014589;23;20015;-89
2022/12/25 11:42:54;;;;;;;0.95;0.55;;;;;;;12.34;32.50;100790.91;6016023;23;20468;-89
2022/12/25 11:45:27;;;;;;;0.55;0.47;;;;;;;12.48;32.64;100814.16;6014635;23;20097;-89
2022/12/25 11:47:57;;;;;;;0.43;0.43;;;;;;;12.62;32.41;100846.47;6015438;23;20394;-90
2022/12/25 11:50:26;;;;;;;1.52;0.60;;;;;;;12.75;32.69;100862.72;6014231;23;20389;-90
2022/12/25 11:52:52;;;;;;;1.13;0.63;;;;;;;12.49;32.66;100825.72;6060222;23;20181;-89
2022/12/25 11:55:25;;;;;;;0.95;0.57;;;;;;;12.68;32.75;100859.94;6012834;23;20098;-90
2022/12/25 11:57:54;;;;;;;0.47;0.47;;;;;;;12.73;32.34;100865.56;6061642;23;20440;-89
2022/12/25 12:00:22;;;;;;;1.00;0.57;;;;;;;12.70;32.33;100871.31;6037782;23;20373;-89
2022/12/25 12:03:24;;;;;;;0.65;0.50;;;;;;;12.72;32.52;100879.16;6013198;23;20033;-90
2022/12/25 12:06:01;;;;;;;0.50;0.50;;;;;;;12.70;32.34;100875.84;6030550;23;20011;-89
2022/12/25 12:08:27;;;;;;;1.50;0.50;;;;;;;12.64;32.51;100872.09;6037254;23;20745;-90
2022/12/25 12:10:58;;;;;;;0.93;0.60;;;;;;;12.67;32.60;100878.91;6034111;23;20013;-90
2022/12/25 12:13:39;;;;;;;0.63;0.50;;;;;;;12.62;32.37;100870.59;6030884;23;20410;-89
2022/12/25 12:16:07;;;;;;;0.80;0.60;;;;;;;12.65;32.64;100878.28;6030892;23;20098;-89
2022/12/25 12:18:43;;;;;;;1.05;0.73;;;;;;;12.72;32.45;100887.22;6006681;23;20011;-90
2022/12/25 12:21:22;;;;;;;0.90;0.70;;;;;;;12.49;32.58;100850.66;6032031;23;20091;-89
2022/12/25 12:24:12;;;;;;;0.60;0.60;;;;;;;12.51;32.47;100855.84;6008639;23;20015;-89
2022/12/25 12:26:40;;;;;;;0.93;0.65;;;;;;;12.58;32.21;100867.47;6009094;23;20011;-90
2022/12/25 12:29:08;;;;;;;1.33;0.60;;;;;;;12.52;32.45;100855.66;6008410;23;20341;-89
2022/12/25 12:31:47;;;;;;;0.70;0.50;;;;;;;12.33;32.41;100837.47;6007891;23;20014;-90
2022/12/25 12:34:41;;;;;;;0.43;0.40;;;;;;;12.51;32.30;100872.75;6008170;23;20017;-90
2022/12/25 12:37:18;;;;;;;0.60;0.60;;;;;;;12.46;32.71;100864.44;6036643;23;20011;-89
2022/12/25 12:39:43;;;;;;;0.60;0.60;;;;;;;12.53;32.53;100885.97;6010491;23;20344;-89
2022/12/25 12:42:13;;;;;;;1.15;0.60;;;;;;;12.45;32.41;100867.31;6006973;23;20015;-89
2022/12/25 12:44:39;;;;;;;0.70;0.70;;;;;;;12.56;32.21;100888.28;6008121;23;20019;-90
2022/12/25 12:47:05;;;;;;;0.60;0.50;;;;;;;12.62;32.49;100892.06;6007548;23;20397;-90
2022/12/25 12:49:33;;;;;;;1.05;0.60;;;;;;;12.50;32.15;100886.34;6006023;23;20090;-89
2022/12/25 12:52:20;;;;;;;1.30;0.70;;;;;;;12.47;32.45;100871.47;6008708;23;20073;-90
2022/12/25 12:55:12;;;;;;;0.50;0.50;;;;;;;12.72;32.36;100916.72;6009234;23;20384;-90
2022/12/25 12:57:38;;;;;;;0.75;0.60;;;;;;;12.64;32.29;100911.47;6026166;23;20310;-89
2022/12/25 13:00:24;;;;;;;0.68;0.60;;;;;;;12.72;32.19;100924.75;6007307;23;20015;-90
2022/12/25 13:03:19;;;;;;;1.58;0.70;;;;;;;12.70;32.41;100935.69;6030299;23;20058;-90
2022/12/25 13:05:57;;;;;;;0.75;0.65;;;;;;;12.49;32.31;100906.97;6030667;23;20081;-90
2022/12/25 13:08:48;;;;;;;1.02;0.70;;;;;;;12.70;32.45;100945.59;6033227;23;20017;-89
2022/12/25 13:11:23;;;;;;;0.73;0.70;;;;;;;12.69;32.29;100939.38;6030652;23;20050;-89
2022/12/25 13:13:50;;;;;;;1.38;0.80;;;;;;;12.62;32.44;100937.63;6030890;23;20034;-90
2022/12/25 13:16:39;;;;;;;0.82;0.50;;;;;;;12.58;32.36;100927.28;6006603;23;20037;-90
2022/12/25 13:19:22;;;;;;;1.30;0.73;;;;;;;12.42;32.36;100911.41;6021233;23;20018;-89
2022/12/25 13:21:59;;;;;;;0.40;0.40;;;;;;;12.57;32.11;100925.63;6007892;23;20490;-90